Time;durP1;ratioP1;P1;durP2;ratioP2;P2;SDS_P1;SDS_P2;PMS_P1;PMS_P2;Temp;Humidity;BMP_temperature;BMP_pressure;BME280_temperature;BME280_humidity;BME280_pressure;Samples;Min_cycle;Max_cycle;Signal;HPM_P1;HPM_P2
2023/11/17 00:00:46;;;;;;;;;0.00;0.00;;;;;11.51;100.00;101729.97;5058177;28;45362;-86
2023/11/17 00:03:11;;;;;;;;;0.00;0.00;;;;;11.47;100.00;101728.31;5057707;28;46966;-86
2023/11/17 00:05:37;;;;;;;;;0.00;0.00;;;;;11.51;100.00;101743.03;5057253;28;66835;-86
2023/11/17 00:08:03;;;;;;;;;0.00;0.00;;;;;11.48;100.00;101743.94;5058163;28;45329;-86
2023/11/17 00:10:28;;;;;;;;;0.00;0.00;;;;;11.50;100.00;101743.94;5041511;28;45288;-86
2023/11/17 00:12:54;;;;;;;;;0.00;0.00;;;;;11.48;100.00;101754.38;5041013;28;46874;-87
2023/11/17 00:15:19;;;;;;;;;0.00;0.00;;;;;11.50;100.00;101746.53;5057748;28;49786;-87
2023/11/17 00:17:44;;;;;;;;;0.00;0.00;;;;;11.50;100.00;101749.13;5040937;28;45349;-87
2023/11/17 00:20:10;;;;;;;;;0.00;0.00;;;;;11.49;100.00;101745.66;5041223;28;45291;-87
2023/11/17 00:22:35;;;;;;;;;0.00;0.00;;;;;11.49;100.00;101750.88;5059558;28;46537;-87
2023/11/17 00:25:01;;;;;;;;;0.00;0.00;;;;;11.48;100.00;101750.88;5041111;28;45610;-88
2023/11/17 00:27:27;;;;;;;;;0.00;0.00;;;;;11.46;100.00;101745.72;5058003;28;45389;-87
2023/11/17 00:29:52;;;;;;;;;0.00;0.00;;;;;11.46;100.00;101758.75;5057862;28;45469;-87
2023/11/17 00:32:18;;;;;;;;;0.00;0.00;;;;;11.41;100.00;101758.81;5040607;28;46909;-87
2023/11/17 00:34:43;;;;;;;;;0.00;0.00;;;;;11.39;100.00;101757.97;5040970;28;46112;-87
2023/11/17 00:37:09;;;;;;;;;0.00;0.00;;;;;11.36;100.00;101763.22;5057421;28;45360;-87
2023/11/17 00:39:38;;;;;;;;;0.00;0.00;;;;;11.29;100.00;101763.34;5056939;28;45502;-86
2023/11/17 00:42:03;;;;;;;;;0.00;0.00;;;;;11.27;100.00;101750.34;5041080;28;48191;-87
2023/11/17 00:44:30;;;;;;;;;0.00;0.00;;;;;11.23;100.00;101753.88;5057453;28;45411;-87
2023/11/17 00:46:55;;;;;;;;;0.00;0.00;;;;;11.15;100.00;101756.63;5057272;28;45355;-87
2023/11/17 00:49:21;;;;;;;;;0.00;0.00;;;;;11.16;100.00;101766.16;5040846;28;45317;-87
2023/11/17 00:51:48;;;;;;;;;0.00;0.00;;;;;11.10;100.00;101754.97;5057539;28;47536;-87
2023/11/17 00:54:14;;;;;;;;;0.00;0.00;;;;;11.07;100.00;101755.00;5057632;28;45477;-87
2023/11/17 00:56:40;;;;;;;;;0.00;0.00;;;;;11.08;100.00;101756.72;5040823;28;45331;-87
2023/11/17 00:59:11;;;;;;;;;0.00;0.00;;;;;10.99;100.00;101760.31;5057438;28;45378;-87
2023/11/17 01:01:38;;;;;;;;;0.00;0.00;;;;;11.02;100.00;101761.16;5056828;28;45567;-86
2023/11/17 01:04:04;;;;;;;;;0.00;0.00;;;;;11.01;100.00;101763.75;5057205;28;45334;-86
2023/11/17 01:06:29;;;;;;;;;0.75;0.75;;;;;10.98;100.00;101769.88;5057597;28;45430;-87
2023/11/17 01:08:55;;;;;;;;;0.00;0.00;;;;;10.94;100.00;101764.72;5039947;28;45512;-87
2023/11/17 01:11:22;;;;;;;;;0.00;0.00;;;;;10.92;100.00;101762.19;5040959;28;48061;-87
2023/11/17 01:13:47;;;;;;;;;0.00;0.00;;;;;10.86;100.00;101754.41;5057617;28;45410;-87
2023/11/17 01:16:16;;;;;;;;;0.00;0.00;;;;;10.86;100.00;101746.59;5040830;28;45452;-87
2023/11/17 01:18:41;;;;;;;;;0.00;0.00;;;;;10.88;100.00;101763.06;5057826;28;45561;-87
2023/11/17 01:21:07;;;;;;;;;0.00;0.00;;;;;10.90;100.00;101771.75;5056736;28;47173;-87
2023/11/17 01:23:33;;;;;;;;;0.00;0.00;;;;;10.89;100.00;101769.16;5057361;28;45355;-87
2023/11/17 01:25:58;;;;;;;;;0.00;0.00;;;;;10.85;100.00;101771.81;5070478;28;45476;-87
2023/11/17 01:28:24;;;;;;;;;0.00;0.00;;;;;10.82;100.00;101771.84;5040197;28;45406;-87
2023/11/17 01:30:49;;;;;;;;;0.00;0.00;;;;;10.81;100.00;101772.72;5039873;28;48380;-87
2023/11/17 01:33:14;;;;;;;;;0.00;0.00;;;;;10.76;100.00;101776.28;5057091;28;56933;-87
2023/11/17 01:35:41;;;;;;;;;0.00;0.00;;;;;10.77;100.00;101778.00;5057265;28;45389;-87
2023/11/17 01:38:08;;;;;;;;;0.25;0.25;;;;;10.76;100.00;101771.94;5057068;28;45324;-86
2023/11/17 01:40:33;;;;;;;;;0.00;0.00;;;;;10.84;100.00;101785.69;5057172;28;46354;-87
2023/11/17 01:43:05;;;;;;;;;0.00;0.00;;;;;10.94;100.00;101794.28;5040597;28;45383;-87
2023/11/17 01:45:34;;;;;;;;;0.00;0.00;;;;;10.97;100.00;101802.03;5040213;28;45350;-88
2023/11/17 01:48:00;;;;;;;;;0.00;0.00;;;;;10.98;100.00;101793.34;5057164;28;45512;-87
2023/11/17 01:50:26;;;;;;;;;0.00;0.00;;;;;11.09;100.00;101789.72;5057111;28;47021;-88
2023/11/17 01:52:51;;;;;;;;;0.00;0.00;;;;;11.08;100.00;101767.16;5056796;28;47445;-88
2023/11/17 01:55:18;;;;;;;;;0.00;0.00;;;;;11.14;100.00;101757.47;5040135;28;45650;-88
2023/11/17 01:57:45;;;;;;;;;0.00;0.00;;;;;11.10;100.00;101770.59;5056871;28;45705;-88
2023/11/17 02:00:14;;;;;;;;;0.00;0.00;;;;;11.15;100.00;101787.03;5039450;28;48279;-87
2023/11/17 02:02:51;;;;;;;;;0.00;0.00;;;;;11.23;100.00;101795.59;5056738;28;45311;-87
2023/11/17 02:05:20;;;;;;;;;0.00;0.00;;;;;11.24;100.00;101787.75;5039983;28;45329;-87
2023/11/17 02:08:04;;;;;;;;;0.00;0.00;;;;;11.21;100.00;101771.28;5056674;28;45256;-88
2023/11/17 02:11:04;;;;;;;;;0.00;0.00;;;;;11.32;100.00;101784.16;5056793;28;45732;-88
2023/11/17 02:13:44;;;;;;;;;0.00;0.00;;;;;11.34;100.00;101772.81;5056548;28;45323;-87
2023/11/17 02:16:24;;;;;;;;;0.00;0.00;;;;;11.32;100.00;101769.38;5056905;28;45384;-88
2023/11/17 02:18:51;;;;;;;;;0.00;0.00;;;;;11.35;100.00;101768.50;5056753;28;45469;-87
2023/11/17 02:21:20;;;;;;;;;0.00;0.00;;;;;11.33;100.00;101772.84;5055906;28;47026;-88
2023/11/17 02:23:47;;;;;;;;;0.00;0.00;;;;;11.36;100.00;101773.66;5056462;28;45637;-88
2023/11/17 02:26:22;;;;;;;;;0.00;0.00;;;;;11.38;100.00;101781.47;5039885;28;45268;-87
2023/11/17 02:29:10;;;;;;;;;0.00;0.00;;;;;11.40;100.00;101777.97;5056201;28;45179;-87
2023/11/17 02:31:39;;;;;;;;;0.00;0.00;;;;;11.37;100.00;101759.75;5057293;28;46325;-88
2023/11/17 02:34:08;;;;;;;;;0.00;0.00;;;;;11.39;100.00;101762.34;5056502;28;45363;-88
2023/11/17 02:36:33;;;;;;;;;0.00;0.00;;;;;11.37;100.00;101751.94;5056484;28;45279;-88
2023/11/17 02:39:24;;;;;;;;;0.00;0.00;;;;;11.39;100.00;101768.41;5040056;28;45247;-87
2023/11/17 02:41:56;;;;;;;;;0.00;0.00;;;;;11.39;100.00;101767.56;5042277;28;46919;-87
2023/11/17 02:44:29;;;;;;;;;0.00;0.00;;;;;11.34;100.00;101761.53;5040602;28;45450;-88
2023/11/17 02:46:59;;;;;;;;;0.00;0.00;;;;;11.33;100.00;101758.09;5056678;28;45419;-88
2023/11/17 02:49:40;;;;;;;;;0.00;0.00;;;;;11.37;100.00;101762.34;5056341;28;45402;-88
2023/11/17 02:52:09;;;;;;;;;0.00;0.00;;;;;11.40;100.00;101766.66;5057087;28;45352;-88
2023/11/17 02:54:35;;;;;;;;;0.00;0.00;;;;;11.39;100.00;101771.00;5039949;28;45639;-88
2023/11/17 02:57:03;;;;;;;;;0.00;0.00;;;;;11.38;100.00;101758.00;5056121;28;45274;-88
2023/11/17 02:59:34;;;;;;;;;0.00;0.00;;;;;11.42;100.00;101760.56;5056330;28;45263;-88
2023/11/17 03:02:02;;;;;;;;;0.00;0.00;;;;;11.40;100.00;101754.50;5040142;28;47240;-88
2023/11/17 03:04:27;;;;;;;;;0.00;0.00;;;;;11.37;100.00;101764.97;5055897;28;45317;-88
2023/11/17 03:06:52;;;;;;;;;0.00;0.00;;;;;11.37;100.00;101762.34;5039428;28;45497;-88
2023/11/17 03:09:26;;;;;;;;;0.00;0.00;;;;;11.33;100.00;101749.38;5039191;28;45757;-88
2023/11/17 03:11:59;;;;;;;;;0.00;0.00;;;;;11.41;100.00;101755.34;5055600;28;48120;-88
2023/11/17 03:14:24;;;;;;;;;0.00;0.00;;;;;11.45;100.00;101756.16;5039839;28;45366;-88
2023/11/17 03:16:54;;;;;;;;;0.00;0.00;;;;;11.48;100.00;101756.97;5056265;28;45357;-88
2023/11/17 03:19:19;;;;;;;;;0.00;0.00;;;;;11.44;100.00;101755.31;5057326;28;45289;-88
2023/11/17 03:21:45;;;;;;;;;0.00;0.00;;;;;11.49;100.00;101756.06;5056314;28;45293;-88
2023/11/17 03:24:17;;;;;;;;;0.00;0.00;;;;;11.51;100.00;101763.88;5055655;28;45318;-88
2023/11/17 03:26:50;;;;;;;;;0.00;0.00;;;;;11.54;100.00;101758.63;5039583;28;45406;-88
2023/11/17 03:29:16;;;;;;;;;1.50;1.50;;;;;11.51;100.00;101749.09;5056640;28;45494;-88
2023/11/17 03:31:48;;;;;;;;;0.00;0.00;;;;;11.54;100.00;101749.03;5056112;28;47250;-88
2023/11/17 03:34:43;;;;;;;;;0.00;0.00;;;;;11.55;100.00;101747.28;5059974;28;45378;-88
2023/11/17 03:37:12;;;;;;;;;0.00;0.00;;;;;11.53;100.00;101723.84;5018409;28;45514;-88
2023/11/17 03:39:41;;;;;;;;;0.00;0.00;;;;;11.57;100.00;101728.16;5002696;28;45554;-88
2023/11/17 03:42:11;;;;;;;;;0.00;0.00;;;;;11.53;100.00;101729.06;5019123;28;46682;-88
2023/11/17 03:44:36;;;;;;;;;0.00;0.00;;;;;11.47;100.00;101718.75;5038541;28;45411;-88
2023/11/17 03:47:06;;;;;;;;;0.00;0.00;;;;;11.43;100.00;101725.75;5038101;28;45466;-88
2023/11/17 03:49:32;;;;;;;;;0.00;0.00;;;;;11.45;100.00;101728.34;5038970;28;45517;-88
2023/11/17 03:51:58;;;;;;;;;0.00;0.00;;;;;11.47;100.00;101741.34;5021588;28;47240;-88
2023/11/17 03:54:23;;;;;;;;;0.00;0.00;;;;;11.43;100.00;101740.53;5020263;28;70668;-88
2023/11/17 03:56:49;;;;;;;;;0.00;0.00;;;;;11.46;100.00;101750.94;5021362;28;47599;-88
2023/11/17 03:59:16;;;;;;;;;0.00;0.00;;;;;11.48;100.00;101761.31;5037742;28;45390;-88
2023/11/17 04:01:42;;;;;;;;;0.00;0.00;;;;;11.44;100.00;101744.88;5021948;28;47088;-88
2023/11/17 04:04:08;;;;;;;;;0.00;0.00;;;;;11.41;100.00;101745.78;5021491;28;45564;-88
2023/11/17 04:06:34;;;;;;;;;0.00;0.00;;;;;11.38;100.00;101739.75;5021459;28;45775;-88
2023/11/17 04:09:04;;;;;;;;;0.00;0.00;;;;;11.45;100.00;101736.16;5021291;28;45359;-88
2023/11/17 04:11:31;;;;;;;;;0.00;0.00;;;;;11.52;100.00;101735.19;5037640;28;48034;-88
2023/11/17 04:13:56;;;;;;;;;0.00;0.00;;;;;11.57;100.00;101735.97;5045248;28;46353;-88
2023/11/17 04:16:22;;;;;;;;;0.00;0.00;;;;;11.57;100.00;101715.09;5059106;28;45267;-88
2023/11/17 04:18:47;;;;;;;;;0.00;0.00;;;;;11.59;100.00;101708.13;5042182;28;45544;-89
2023/11/17 04:21:13;;;;;;;;;0.00;0.00;;;;;11.62;100.00;101733.25;5058894;28;45301;-88
2023/11/17 04:23:38;;;;;;;;;0.00;0.00;;;;;11.63;100.00;101754.09;5041974;28;45309;-88
2023/11/17 04:26:05;;;;;;;;;0.00;0.00;;;;;11.58;100.00;101747.25;5058526;28;45408;-88
2023/11/17 04:28:31;;;;;;;;;0.25;0.25;;;;;11.54;100.00;101751.66;5042302;28;45448;-88
2023/11/17 04:30:57;;;;;;;;;0.00;0.00;;;;;11.48;100.00;101743.94;5058456;28;46286;-88
2023/11/17 04:33:23;;;;;;;;;0.00;0.00;;;;;11.48;100.00;101754.38;5041643;28;45360;-88
2023/11/17 04:35:49;;;;;;;;;0.00;0.00;;;;;11.42;100.00;101762.28;5058777;28;45353;-88
2023/11/17 04:38:14;;;;;;;;;0.00;0.00;;;;;11.44;100.00;101768.34;5041271;28;45404;-88
2023/11/17 04:40:39;;;;;;;;;0.00;0.00;;;;;11.47;100.00;101770.88;5040738;28;68918;-88
2023/11/17 04:43:06;;;;;;;;;0.00;0.00;;;;;11.50;100.00;101764.78;5058655;28;45396;-88
2023/11/17 04:45:36;;;;;;;;;0.00;0.00;;;;;11.53;100.00;101749.06;5058834;28;45464;-89
2023/11/17 04:48:04;;;;;;;;;0.00;0.00;;;;;11.53;100.00;101742.09;5059386;28;45490;-88
2023/11/17 04:50:31;;;;;;;;;0.00;0.00;;;;;11.57;100.00;101735.97;5041146;28;47312;-89
2023/11/17 04:52:56;;;;;;;;;0.00;0.00;;;;;11.59;100.00;101736.78;5057990;28;45287;-89
2023/11/17 04:55:21;;;;;;;;;0.00;0.00;;;;;11.57;100.00;101732.47;5058614;28;45346;-89
2023/11/17 04:57:47;;;;;;;;;0.00;0.00;;;;;11.53;100.00;101743.84;5041719;28;45733;-88
2023/11/17 05:00:16;;;;;;;;;0.00;0.00;;;;;11.41;100.00;101737.97;5040900;28;54286;-89
2023/11/17 05:02:42;;;;;;;;;0.00;0.00;;;;;11.39;100.00;101757.13;5041714;28;45407;-88
2023/11/17 05:05:11;;;;;;;;;0.00;0.00;;;;;11.30;100.00;101752.06;5058475;28;45495;-88
2023/11/17 05:07:39;;;;;;;;;0.00;0.00;;;;;11.26;100.00;101756.47;5058457;28;45400;-89
2023/11/17 05:10:06;;;;;;;;;0.00;0.00;;;;;11.25;100.00;101757.31;5058110;28;47993;-87
2023/11/17 05:12:32;;;;;;;;;0.00;0.00;;;;;11.22;100.00;101745.22;5057860;28;45537;-88
2023/11/17 05:14:57;;;;;;;;;0.00;0.00;;;;;11.30;100.00;101754.66;5059120;28;45384;-89
2023/11/17 05:17:23;;;;;;;;;0.00;0.00;;;;;11.33;100.00;101746.78;5041442;28;45275;-89
2023/11/17 05:19:49;;;;;;;;;0.00;0.00;;;;;11.37;100.00;101751.09;5057761;28;46320;-89
2023/11/17 05:22:15;;;;;;;;;0.00;0.00;;;;;11.35;100.00;101758.06;5058730;28;45537;-88
2023/11/17 05:24:40;;;;;;;;;0.00;0.00;;;;;11.34;100.00;101772.81;5058627;28;45452;-88
2023/11/17 05:27:06;;;;;;;;;0.00;0.00;;;;;11.39;100.00;101764.94;5057700;28;45351;-89
2023/11/17 05:29:32;;;;;;;;;0.00;0.00;;;;;11.42;100.00;101747.50;5057238;28;46618;-89
2023/11/17 05:31:57;;;;;;;;;0.00;0.00;;;;;11.47;100.00;101746.56;5041049;28;52246;-89
2023/11/17 05:34:24;;;;;;;;;0.00;0.00;;;;;11.43;100.00;101741.41;5040500;28;51671;-89
2023/11/17 05:36:50;;;;;;;;;0.00;0.00;;;;;11.48;100.00;101753.50;5058521;28;45429;-89
2023/11/17 05:39:15;;;;;;;;;0.00;0.00;;;;;11.48;100.00;101754.38;5057478;28;46069;-89
2023/11/17 05:41:43;;;;;;;;;0.00;0.00;;;;;11.50;100.00;101750.00;5057460;28;45926;-89
2023/11/17 05:44:08;;;;;;;;;0.00;0.00;;;;;11.50;100.00;101741.31;5041514;28;45352;-89
2023/11/17 05:46:34;;;;;;;;;0.00;0.00;;;;;11.43;100.00;101738.78;5040756;28;45495;-90
2023/11/17 05:48:59;;;;;;;;;0.00;0.00;;;;;11.53;100.00;101741.25;5057781;28;47264;-89
2023/11/17 05:51:25;;;;;;;;;0.00;0.00;;;;;11.53;100.00;101749.06;5040665;28;45512;-89
2023/11/17 05:53:51;;;;;;;;;0.00;0.00;;;;;11.57;100.00;101753.34;5057300;28;45528;-89
2023/11/17 05:56:17;;;;;;;;;0.00;0.00;;;;;11.55;100.00;101757.72;5056910;28;45492;-89
2023/11/17 05:58:43;;;;;;;;;0.00;0.00;;;;;11.52;100.00;101753.44;5057231;28;45332;-89
2023/11/17 06:01:08;;;;;;;;;0.00;0.00;;;;;11.57;100.00;101755.94;5057619;28;45300;-89
2023/11/17 06:03:35;;;;;;;;;0.00;0.00;;;;;11.60;100.00;101754.16;5040765;28;45400;-88
2023/11/17 06:06:02;;;;;;;;;0.00;0.00;;;;;11.61;100.00;101766.31;5057224;28;45481;-89
2023/11/17 06:08:31;;;;;;;;;0.00;0.00;;;;;11.61;100.00;101768.91;5058219;28;45516;-89
2023/11/17 06:10:58;;;;;;;;;0.00;0.00;;;;;11.54;100.00;101764.69;5058386;28;45242;-89
2023/11/17 06:13:24;;;;;;;;;0.00;0.00;;;;;11.63;100.00;101764.53;5058482;28;45343;-88
2023/11/17 06:15:49;;;;;;;;;0.00;0.00;;;;;11.68;100.00;101774.03;5057277;28;45259;-88
2023/11/17 06:18:16;;;;;;;;;0.00;0.00;;;;;11.69;100.00;101784.44;5040471;28;47094;-88
2023/11/17 06:20:41;;;;;;;;;0.00;0.00;;;;;11.70;100.00;101782.69;5056622;28;45718;-88
2023/11/17 06:23:08;;;;;;;;;0.00;0.00;;;;;11.76;100.00;101790.41;5057541;28;45570;-87
2023/11/17 06:25:34;;;;;;;;;0.00;0.00;;;;;11.71;100.00;101767.00;5040342;28;45311;-89
2023/11/17 06:27:59;;;;;;;;;0.00;0.00;;;;;11.74;100.00;101780.00;5057880;28;45393;-88
2023/11/17 06:30:25;;;;;;;;;0.00;0.00;;;;;11.74;100.00;101781.78;5040257;28;45426;-89
2023/11/17 06:32:51;;;;;;;;;0.00;0.00;;;;;11.71;100.00;101784.41;5056812;28;45466;-90
2023/11/17 06:35:16;;;;;;;;;0.00;0.00;;;;;11.71;100.00;101785.25;5040566;28;45407;-89
2023/11/17 06:37:42;;;;;;;;;0.00;0.00;;;;;11.75;100.00;101784.31;5057823;28;46337;-88
2023/11/17 06:40:09;;;;;;;;;0.00;0.00;;;;;11.74;100.00;101784.38;5039940;28;45342;-89
2023/11/17 06:42:35;;;;;;;;;0.00;0.00;;;;;11.70;100.00;101775.75;5056729;28;45491;-88
2023/11/17 06:45:01;;;;;;;;;0.00;0.00;;;;;11.76;100.00;101778.22;5039505;28;45415;-88
2023/11/17 06:47:26;;;;;;;;;0.00;0.00;;;;;11.72;100.00;101773.97;5056693;28;48300;-88
2023/11/17 06:49:53;;;;;;;;;0.00;0.00;;;;;11.76;100.00;101788.66;5039673;28;46024;-88
2023/11/17 06:52:18;;;;;;;;;0.00;0.00;;;;;11.75;100.00;101780.84;5057223;28;45334;-88
2023/11/17 06:54:43;;;;;;;;;0.00;0.00;;;;;11.72;100.00;101792.22;5057655;28;45592;-88
2023/11/17 06:57:09;;;;;;;;;0.00;0.00;;;;;11.67;100.00;101795.78;5056477;28;46242;-87
2023/11/17 06:59:34;;;;;;;;;0.00;0.00;;;;;11.62;100.00;101801.06;5039442;28;46149;-88
2023/11/17 07:02:00;;;;;;;;;0.00;0.00;;;;;11.55;100.00;101802.06;5056264;28;45675;-88
2023/11/17 07:04:25;;;;;;;;;0.00;0.00;;;;;11.57;100.00;101816.81;5056083;28;45252;-88
2023/11/17 07:06:53;;;;;;;;;0.00;0.00;;;;;11.50;100.00;101807.34;5056456;28;46393;-88
2023/11/17 07:09:23;;;;;;;;;0.00;0.00;;;;;11.47;100.00;101796.97;5056140;28;45378;-88
2023/11/17 07:11:51;;;;;;;;;0.00;0.00;;;;;11.46;100.00;101816.13;5040374;28;45379;-88
2023/11/17 07:14:19;;;;;;;;;0.00;0.00;;;;;11.41;100.00;101812.72;5057162;28;46138;-86
2023/11/17 07:16:48;;;;;;;;;0.00;0.00;;;;;11.40;100.00;101824.88;5055792;28;45478;-87
2023/11/17 07:19:21;;;;;;;;;0.00;0.00;;;;;11.38;100.00;101831.84;5056474;28;45403;-93
2023/11/17 07:22:01;;;;;;;;;0.00;0.00;;;;;11.38;100.00;101828.38;5056199;28;45213;-87
2023/11/17 07:25:05;;;;;;;;;;;;;;;;;;;;;
2023/11/17 07:27:33;;;;;;;;;0.00;0.00;;;;;11.33;100.00;101838.91;5031787;28;74831;-89
2023/11/17 07:30:30;;;;;;;;;0.00;0.00;;;;;11.34;100.00;101827.56;5035941;28;46274;-89
2023/11/17 07:37:10;;;;;;;;;;;;;;;;;;;;;
2023/11/17 07:40:14;;;;;;;;;0.00;0.00;;;;;11.44;100.00;101833.53;5032409;28;73858;-88
2023/11/17 07:42:31;;;;;;;;;0.00;0.00;;;;;11.40;100.00;101832.72;5033884;28;45292;-84
2023/11/17 07:44:57;;;;;;;;;0.00;0.00;;;;;11.42;100.00;101846.59;5055579;28;45272;-84
2023/11/17 07:47:23;;;;;;;;;0.00;0.00;;;;;11.46;100.00;101842.19;5056044;28;45452;-85
2023/11/17 07:49:48;;;;;;;;;0.00;0.00;;;;;11.50;100.00;101832.56;5053941;28;46066;-87
2023/11/17 07:52:14;;;;;;;;;0.00;0.00;;;;;11.55;100.00;101836.84;5062268;27;45652;-87
2023/11/17 07:54:42;;;;;;;;;0.00;0.00;;;;;11.58;100.00;101855.00;5038462;28;45537;-87
2023/11/17 07:57:08;;;;;;;;;0.00;0.00;;;;;11.62;100.00;101850.63;5048757;28;45439;-87
2023/11/17 07:59:33;;;;;;;;;0.00;0.00;;;;;11.69;100.00;101875.72;5053588;28;46912;-88
2023/11/17 08:01:59;;;;;;;;;0.00;0.00;;;;;11.67;100.00;101863.59;5037389;28;45287;-87
2023/11/17 08:04:25;;;;;;;;;0.00;0.00;;;;;11.82;100.00;101879.00;5040474;28;45388;-87
2023/11/17 08:06:53;;;;;;;;;0.00;0.00;;;;;11.86;100.00;101891.09;5034901;28;45599;-87
2023/11/17 08:09:18;;;;;;;;;0.00;0.00;;;;;11.91;100.00;101894.53;5035169;28;46057;-92
2023/11/17 08:11:47;;;;;;;;;0.00;0.00;;;;;11.97;100.00;101894.44;5052032;28;45342;-88
2023/11/17 08:14:13;;;;;;;;;0.00;0.00;;;;;12.04;100.00;101907.41;5037098;28;45389;-92
2023/11/17 08:16:40;;;;;;;;;0.00;0.00;;;;;11.98;100.00;101898.78;5038841;28;45553;-90
2023/11/17 08:19:08;;;;;;;;;0.00;0.00;;;;;11.98;100.00;101895.31;5058840;28;46048;-88
2023/11/17 08:21:34;;;;;;;;;0.00;0.00;;;;;12.02;100.00;101897.00;5058681;28;45381;-89
2023/11/17 08:24:09;;;;;;;;;0.00;0.00;;;;;12.01;100.00;101892.63;5058901;28;45507;-93
2023/11/17 08:26:51;;;;;;;;;0.25;0.25;;;;;11.99;100.00;101904.84;5061115;28;45639;-86
2023/11/17 08:29:21;;;;;;;;;0.00;0.00;;;;;12.01;100.00;101896.09;5039185;28;47038;-86
2023/11/17 08:31:49;;;;;;;;;1.00;1.00;;;;;12.01;100.00;101905.69;5056880;28;45511;-84
2023/11/17 08:34:16;;;;;;;;;0.00;0.00;;;;;12.00;100.00;101898.75;5070807;28;45239;-86
2023/11/17 08:36:42;;;;;;;;;0.00;0.00;;;;;11.95;100.00;101888.38;5044734;28;45279;-83
2023/11/17 08:39:08;;;;;;;;;2.00;2.00;;;;;11.89;100.00;101874.56;5058550;28;46495;-83
2023/11/17 08:41:34;;;;;;;;;0.00;0.00;;;;;11.84;100.00;101864.19;5056042;28;45531;-84
2023/11/17 08:43:59;;;;;;;;;0.00;0.00;;;;;11.82;100.00;101865.97;5056172;28;45392;-84
2023/11/17 08:46:28;;;;;;;;;1.00;1.00;;;;;11.77;100.00;101867.78;5056154;28;45460;-84
2023/11/17 08:48:56;;;;;;;;;0.00;0.00;;;;;11.80;100.00;101892.06;5054736;28;45622;-84
2023/11/17 08:51:21;;;;;;;;;0.00;0.00;;;;;11.79;100.00;101885.16;5054888;28;45399;-84
2023/11/17 08:53:46;;;;;;;;;0.00;0.00;;;;;11.77;100.00;101881.66;5055235;28;68852;-84
2023/11/17 08:56:12;;;;;;;;;0.00;0.00;;;;;11.78;100.00;101874.72;5056810;28;70997;-82
2023/11/17 08:58:38;;;;;;;;;0.00;0.00;;;;;11.80;100.00;101888.59;5056860;28;46963;-83
2023/11/17 09:01:05;;;;;;;;;0.00;0.00;;;;;11.82;100.00;101889.44;5055917;28;45401;-81
2023/11/17 09:03:32;;;;;;;;;0.00;0.00;;;;;11.81;100.00;101891.19;5060042;28;45702;-82
2023/11/17 09:05:58;;;;;;;;;0.00;0.00;;;;;11.85;100.00;101897.22;5056146;28;45599;-81
2023/11/17 09:08:23;;;;;;;;;0.00;0.00;;;;;11.82;100.00;101898.13;5056721;28;45550;-82
2023/11/17 09:10:49;;;;;;;;;0.00;0.00;;;;;11.78;100.00;101901.66;5055439;28;63082;-81
2023/11/17 09:13:14;;;;;;;;;0.00;0.00;;;;;11.78;100.00;101908.63;5055607;28;45252;-82
2023/11/17 09:15:39;;;;;;;;;0.00;0.00;;;;;11.78;100.00;101903.41;5057802;28;45342;-82
2023/11/17 09:18:07;;;;;;;;;0.00;0.00;;;;;11.73;100.00;101892.19;5037874;28;64673;-82
2023/11/17 09:20:33;;;;;;;;;0.00;0.00;;;;;11.80;100.00;101899.88;5057059;28;45378;-83
2023/11/17 09:22:59;;;;;;;;;0.00;0.00;;;;;11.81;100.00;101901.63;5055453;28;45370;-82
2023/11/17 09:25:24;;;;;;;;;0.00;0.00;;;;;11.88;100.00;101906.75;5055426;28;45360;-82
2023/11/17 09:27:54;;;;;;;;;0.00;0.00;;;;;11.96;100.00;101897.06;5049653;28;68730;-82
2023/11/17 09:30:21;;;;;;;;;0.00;0.00;;;;;11.97;100.00;101911.84;5045136;28;45407;-82
2023/11/17 09:32:48;;;;;;;;;0.00;0.00;;;;;12.08;100.00;101906.47;5084025;27;45386;-82
2023/11/17 09:35:19;;;;;;;;;0.00;0.00;;;;;12.15;100.00;101905.47;5039245;28;45506;-83
2023/11/17 09:37:49;;;;;;;;;0.00;0.00;;;;;12.29;100.00;101910.44;5056612;28;45445;-82
2023/11/17 09:40:18;;;;;;;;;0.00;0.00;;;;;12.43;100.00;101907.59;5054864;28;45858;-83
2023/11/17 09:42:45;;;;;;;;;0.00;0.00;;;;;12.57;100.00;101918.66;5054705;28;45323;-83
2023/11/17 09:45:12;;;;;;;;;0.00;0.00;;;;;12.71;100.00;101913.19;5055898;28;45359;-82
2023/11/17 09:47:40;;;;;;;;;0.00;0.00;;;;;12.85;100.00;101912.91;5038525;28;47251;-83
2023/11/17 09:50:09;;;;;;;;;0.00;0.00;;;;;12.94;100.00;101931.84;5054730;28;45533;-81
2023/11/17 09:52:34;;;;;;;;;0.00;0.00;;;;;13.00;100.00;101917.84;5049535;28;45498;-81
2023/11/17 09:55:00;;;;;;;;;0.00;0.00;;;;;13.09;100.00;101933.34;5055163;28;45475;-81
2023/11/17 09:57:25;;;;;;;;;0.00;0.00;;;;;13.08;100.00;101939.44;5049332;28;72126;-84
2023/11/17 09:59:55;;;;;;;;;0.00;0.00;;;;;13.20;100.00;101940.94;5055163;28;45445;-83
2023/11/17 10:02:21;;;;;;;;;0.00;0.00;;;;;13.32;100.00;101942.50;5048493;28;45597;-83
2023/11/17 10:04:47;;;;;;;;;0.00;0.00;;;;;13.29;100.00;101945.13;5056168;28;45618;-83
2023/11/17 10:07:14;;;;;;;;;0.00;0.00;;;;;13.39;100.00;101953.66;5056342;28;45600;-82
2023/11/17 10:09:44;;;;;;;;;0.00;0.00;;;;;13.49;100.00;101940.34;5054014;28;45564;-83
2023/11/17 10:12:10;;;;;;;;;0.00;0.00;;;;;13.73;100.00;101933.72;5053973;28;45600;-83
2023/11/17 10:14:36;;;;;;;;;0.00;0.00;;;;;13.82;100.00;101944.84;5056210;28;45796;-83
2023/11/17 10:17:05;;;;;;;;;0.00;0.00;;;;;13.84;100.00;101938.69;5054196;28;46415;-84
2023/11/17 10:19:30;;;;;;;;;0.00;0.00;;;;;13.89;100.00;101944.69;5040571;28;45395;-81
2023/11/17 10:21:56;;;;;;;;;0.00;0.00;;;;;13.91;100.00;101940.28;5052818;28;55975;-83
2023/11/17 10:24:32;;;;;;;;;0.00;0.00;;;;;13.97;100.00;101934.03;5056085;28;45356;-80
2023/11/17 10:27:00;;;;;;;;;0.00;0.00;;;;;14.01;100.00;101938.31;5057662;28;45404;-83
2023/11/17 10:29:26;;;;;;;;;0.00;0.00;;;;;14.21;100.00;101934.31;5054195;28;45427;-83
2023/11/17 10:31:56;;;;;;;;;0.00;0.00;;;;;14.46;100.00;101938.03;5054543;28;45386;-82
2023/11/17 10:34:23;;;;;;;;;0.00;0.00;;;;;14.67;100.00;101926.19;5054852;28;45753;-82
2023/11/17 10:36:56;;;;;;;;;0.00;0.00;;;;;15.52;100.00;101939.47;5037137;28;47618;-81
2023/11/17 10:39:25;;;;;;;;;0.00;0.00;;;;;15.57;100.00;101945.44;5037166;28;45387;-82
2023/11/17 10:41:52;;;;;;;;;0.00;0.00;;;;;15.72;100.00;101941.47;5054661;28;45394;-82
2023/11/17 10:44:31;;;;;;;;;0.00;0.00;;;;;15.82;100.00;101948.19;5054920;28;45386;-82
2023/11/17 10:46:57;;;;;;;;;0.00;0.00;;;;;15.92;100.00;101959.25;5054177;28;47278;-82
2023/11/17 10:49:22;;;;;;;;;0.00;0.00;;;;;15.93;100.00;101947.84;5055599;28;45791;-83
2023/11/17 10:51:52;;;;;;;;;0.00;0.00;;;;;16.20;100.00;101950.50;5053565;28;45464;-82
2023/11/17 10:54:18;;;;;;;;;0.00;0.00;;;;;16.65;100.00;101949.81;5034256;28;45579;-84
2023/11/17 10:56:53;;;;;;;;;0.00;0.00;;;;;18.19;100.00;101959.81;5042447;28;45398;-85
2023/11/17 10:59:21;;;;;;;;;0.00;0.00;;;;;18.93;100.00;101948.75;5053931;28;45424;-82
2023/11/17 11:01:47;;;;;;;;;0.00;0.00;;;;;18.61;100.00;101964.19;5055313;28;45544;-83
2023/11/17 11:04:24;;;;;;;;;0.00;0.00;;;;;18.22;100.00;101964.09;5055244;28;45408;-83
2023/11/17 11:06:54;;;;;;;;;0.00;0.00;;;;;18.00;100.00;101964.97;5055680;28;46434;-83
2023/11/17 11:09:29;;;;;;;;;0.00;0.00;;;;;18.17;100.00;101966.94;5053427;28;45421;-83
2023/11/17 11:11:54;;;;;;;;;0.00;0.00;;;;;19.78;100.00;101958.03;5054047;28;45367;-82
2023/11/17 11:14:30;;;;;;;;;;;;;;;;;;;;;
2023/11/17 11:16:56;;;;;;;;;0.00;0.00;;;;;23.43;100.00;101965.13;5053800;28;75450;-84
2023/11/17 11:19:27;;;;;;;;;0.00;0.00;;;;;24.41;100.00;101967.63;5037161;28;45341;-82
2023/11/17 11:22:00;;;;;;;;;0.00;0.00;;;;;24.50;100.00;101980.31;5054877;28;45381;-83
2023/11/17 11:24:32;;;;;;;;;0.00;0.00;;;;;23.73;100.00;101985.38;5054833;28;45445;-83
2023/11/17 11:26:58;;;;;;;;;0.00;0.00;;;;;22.67;100.00;101978.69;5036313;28;48266;-82
2023/11/17 11:29:25;;;;;;;;;0.00;0.00;;;;;21.59;100.00;101987.53;5048291;28;73395;-85